createdAt,value
2019-06-10T00:00:42.054Z,99411.95
2019-06-10T00:03:12.806Z,99399.41
2019-06-10T00:05:46.376Z,99394.62
2019-06-10T00:08:21.014Z,99390.87
2019-06-10T00:10:52.310Z,99391.67
2019-06-10T00:13:22.543Z,99392.44
2019-06-10T00:15:54.043Z,99389.74
2019-06-10T00:18:38.369Z,99388.11
2019-06-10T00:20:57.310Z,99323.95
2019-06-10T00:23:27.822Z,99390.20
2019-06-10T00:26:01.277Z,99387.81
2019-06-10T00:28:31.115Z,99391.23
2019-06-10T00:31:03.673Z,99375.53
2019-06-10T00:33:33.532Z,99378.16
2019-06-10T00:36:07.010Z,99298.08
2019-06-10T00:38:36.161Z,99368.84
2019-06-10T00:41:07.631Z,99371.50
2019-06-10T00:43:42.866Z,99368.61
2019-06-10T00:46:13.905Z,99374.42
2019-06-10T00:48:44.216Z,99374.16
2019-06-10T00:51:14.469Z,99374.12
2019-06-10T00:53:51.440Z,99365.30
2019-06-10T00:56:21.795Z,99374.61
2019-06-10T00:58:52.138Z,99371.67
2019-06-10T01:01:22.868Z,99367.41
2019-06-10T01:04:06.520Z,99364.42
2019-06-10T01:06:37.026Z,99351.55
2019-06-10T01:09:15.599Z,99356.34
2019-06-10T01:11:46.526Z,99289.59
2019-06-10T01:14:17.590Z,99356.83
2019-06-10T01:16:50.505Z,99342.97
2019-06-10T01:19:25.030Z,99341.86
2019-06-10T01:21:55.693Z,99282.88
2019-06-10T01:24:26.444Z,99346.91
2019-06-10T01:26:56.659Z,99346.64
2019-06-10T01:29:28.294Z,99343.18
2019-06-10T01:31:58.987Z,99345.58
2019-06-10T01:34:31.120Z,99342.38
2019-06-10T01:37:06.769Z,99333.00
2019-06-10T01:39:41.219Z,99327.94
2019-06-10T01:42:13.989Z,99312.81
2019-06-10T01:44:44.456Z,99317.29
2019-06-10T01:47:17.570Z,99304.53
2019-06-10T01:49:51.733Z,99302.94
2019-06-10T01:52:25.359Z,99295.53
2019-06-10T01:54:57.180Z,99295.82
2019-06-10T01:57:30.880Z,99296.36
2019-06-10T02:00:09.375Z,99296.89
2019-06-10T02:02:37.483Z,99288.67
2019-06-10T02:05:12.609Z,99288.73
2019-06-10T02:07:42.350Z,99289.32
2019-06-10T02:10:19.071Z,99286.39
2019-06-10T02:12:50.885Z,99275.22
2019-06-10T02:15:31.394Z,99275.22
2019-06-10T02:18:02.345Z,99281.08
2019-06-10T02:20:34.657Z,99286.45
2019-06-10T02:23:07.207Z,99283.54
2019-06-10T02:25:41.223Z,99276.63
2019-06-10T02:28:14.887Z,99266.54
2019-06-10T02:31:43.824Z,99253.77
2019-06-10T02:35:14.204Z,99253.50
2019-06-10T02:43:49.510Z,99162.69
2019-06-10T02:46:30.818Z,99240.03
2019-06-10T02:49:21.519Z,99243.27
2019-06-10T02:51:43.800Z,99243.54
2019-06-10T02:57:40.038Z,99243.86
2019-06-10T03:00:20.704Z,99247.59
2019-06-10T03:02:48.839Z,99247.06
2019-06-10T03:05:30.630Z,99256.41
2019-06-10T03:07:58.152Z,99254.02
2019-06-10T03:10:37.167Z,99247.14
2019-06-10T03:13:09.022Z,99247.94
2019-06-10T03:15:44.093Z,99245.32
2019-06-10T03:18:17.816Z,99240.49
2019-06-10T03:20:49.073Z,99249.00
2019-06-10T03:23:23.239Z,99249.00
2019-06-10T03:26:04.679Z,99243.11
2019-06-10T03:28:35.494Z,99242.84
2019-06-10T03:31:18.135Z,99239.34
2019-06-10T03:33:49.222Z,99237.73
2019-06-10T03:36:28.805Z,99243.55
2019-06-10T03:39:02.653Z,99248.60
2019-06-10T03:41:34.071Z,99249.67
2019-06-10T03:44:05.686Z,99246.47
2019-06-10T03:46:37.084Z,99246.96
2019-06-10T03:49:08.904Z,99245.39
2019-06-10T03:51:42.569Z,99176.30
2019-06-10T03:54:13.336Z,99251.22
2019-06-10T03:56:44.257Z,99256.27
2019-06-10T03:59:15.052Z,99254.66
2019-06-10T04:01:45.739Z,99250.36
2019-06-10T04:04:19.426Z,99241.03
2019-06-10T04:06:53.170Z,99248.70
2019-06-10T04:09:29.639Z,99244.41
2019-06-10T04:12:02.132Z,99247.59
2019-06-10T04:14:34.422Z,99242.27
2019-06-10T04:17:13.092Z,99245.45
2019-06-10T04:19:47.176Z,99242.77
2019-06-10T04:22:19.590Z,99243.03
2019-06-10T04:24:51.956Z,99250.75
2019-06-10T04:27:24.162Z,99237.93
2019-06-10T04:29:57.653Z,99238.47
2019-06-10T04:32:29.349Z,99238.47
2019-06-10T04:35:04.880Z,99239.80
2019-06-10T04:37:46.583Z,99240.11
2019-06-10T04:40:21.101Z,99255.10
2019-06-10T04:42:53.106Z,99250.68
2019-06-10T04:45:27.784Z,99249.40
2019-06-10T04:48:03.021Z,99242.21
2019-06-10T04:50:45.508Z,99236.35
2019-06-10T04:53:14.457Z,99224.33
2019-06-10T04:55:48.367Z,99220.92
2019-06-10T04:58:23.326Z,99221.19
2019-06-10T05:00:54.284Z,99220.42
2019-06-10T05:03:26.784Z,99221.23
2019-06-10T05:05:59.254Z,99151.38
2019-06-10T05:08:33.667Z,99233.20
2019-06-10T05:11:14.517Z,99240.09
2019-06-10T05:13:46.779Z,99227.84
2019-06-10T05:16:17.830Z,99229.44
2019-06-10T05:18:54.842Z,99217.94
2019-06-10T05:21:29.407Z,99221.13
2019-06-10T05:24:02.782Z,99216.59
2019-06-10T05:26:33.727Z,99144.64
2019-06-10T05:29:07.641Z,99225.13
2019-06-10T05:31:37.789Z,99235.50
2019-06-10T05:34:08.815Z,99238.70
2019-06-10T05:36:39.296Z,99236.78
2019-06-10T05:39:12.034Z,99248.45
2019-06-10T05:41:43.269Z,99241.05
2019-06-10T05:44:14.824Z,99226.89
2019-06-10T05:46:45.255Z,99224.68
2019-06-10T05:49:16.136Z,99213.88
2019-06-10T05:51:46.548Z,99212.29
2019-06-10T05:54:17.607Z,99204.41
2019-06-10T05:56:48.195Z,99204.27
2019-06-10T05:59:18.822Z,99211.98
2019-06-10T06:01:49.792Z,99205.55
2019-06-10T06:04:23.315Z,99201.38
2019-06-10T06:06:54.231Z,99202.03
2019-06-10T06:09:27.094Z,99192.31
2019-06-10T06:11:57.719Z,99191.34
2019-06-10T06:14:29.546Z,99185.77
2019-06-10T06:17:02.221Z,99177.45
2019-06-10T06:19:35.500Z,99172.38
2019-06-10T06:22:06.004Z,99171.45
2019-06-10T06:24:38.003Z,99169.06
2019-06-10T06:27:09.184Z,99166.50
2019-06-10T06:29:39.956Z,99166.81
2019-06-10T06:32:13.188Z,99168.23
2019-06-10T06:34:44.723Z,99177.18
2019-06-10T06:37:17.012Z,99172.42
2019-06-10T06:39:48.745Z,99168.60
2019-06-10T06:42:20.171Z,99171.23
2019-06-10T06:44:54.501Z,99173.33
2019-06-10T06:47:25.831Z,99172.91
2019-06-10T06:49:58.975Z,99108.09
2019-06-10T06:53:04.945Z,99181.06
2019-06-10T06:55:09.526Z,99185.14
2019-06-10T06:57:43.159Z,99191.13
2019-06-10T07:00:40.819Z,99191.67
2019-06-10T07:02:47.291Z,99192.23
2019-06-10T07:05:20.170Z,99180.72
2019-06-10T07:07:55.640Z,99188.06
2019-06-10T07:10:33.183Z,99187.27
2019-06-10T07:13:06.932Z,99180.63
2019-06-10T07:15:47.048Z,99190.34
2019-06-10T07:18:17.199Z,99180.65
2019-06-10T07:20:48.747Z,99171.51
2019-06-10T07:23:22.525Z,99171.86
2019-06-10T07:25:53.558Z,99167.27
2019-06-10T07:28:28.919Z,99172.97
2019-06-10T07:31:19.853Z,99163.63
2019-06-10T07:33:39.212Z,99161.92
2019-06-10T07:36:09.151Z,99169.72
2019-06-10T07:38:45.754Z,99173.16
2019-06-10T07:41:14.012Z,99174.60
2019-06-10T07:43:49.420Z,99160.58
2019-06-10T07:46:23.098Z,99163.78
2019-06-10T07:48:56.822Z,99154.28
2019-06-10T07:51:27.357Z,99151.52
2019-06-10T07:53:58.797Z,99156.63
2019-06-10T07:56:33.814Z,99156.55
2019-06-10T07:59:09.531Z,99152.93
2019-06-10T08:01:48.096Z,99151.02
2019-06-10T08:04:13.001Z,99154.97
2019-06-10T08:06:45.686Z,99164.84
2019-06-10T08:09:16.220Z,99175.86
2019-06-10T08:11:48.625Z,99170.59
2019-06-10T08:14:22.288Z,99169.44
2019-06-10T08:16:53.160Z,99167.00
2019-06-10T08:19:34.270Z,99162.48
2019-06-10T08:21:57.862Z,99162.61
2019-06-10T08:24:28.666Z,99159.91
2019-06-10T08:27:02.538Z,99156.64
2019-06-10T08:29:33.153Z,99158.55
2019-06-10T08:32:05.660Z,99153.63
2019-06-10T08:34:38.019Z,99160.38
2019-06-10T08:37:08.338Z,99156.66
2019-06-10T08:39:40.213Z,99149.34
2019-06-10T08:42:12.538Z,99147.20
2019-06-10T08:44:47.246Z,99136.73
2019-06-10T08:47:16.683Z,99143.95
2019-06-10T08:49:49.108Z,99144.33
2019-06-10T08:52:23.910Z,99153.84
2019-06-10T08:54:57.961Z,99160.42
2019-06-10T08:57:29.003Z,99098.88
2019-06-10T09:00:11.001Z,99149.28
2019-06-10T09:02:35.118Z,99155.36
2019-06-10T09:05:15.615Z,99138.30
2019-06-10T09:07:50.910Z,99134.44
2019-06-10T09:10:22.731Z,99134.41
2019-06-10T09:12:54.768Z,99144.77
2019-06-10T09:15:32.344Z,99141.39
2019-06-10T09:18:04.232Z,99135.91
2019-06-10T09:20:35.302Z,99146.56
2019-06-10T09:23:21.593Z,99141.41
2019-06-10T09:25:45.252Z,99150.48
2019-06-10T09:28:13.586Z,99139.73
2019-06-10T09:30:49.998Z,99148.34
2019-06-10T09:33:36.575Z,99148.24
2019-06-10T09:36:09.081Z,99147.50
2019-06-10T09:38:45.086Z,99153.88
2019-06-10T09:41:14.171Z,99156.00
2019-06-10T09:43:50.812Z,99097.50
2019-06-10T09:46:24.528Z,99059.91
2019-06-10T09:48:56.748Z,99144.95
2019-06-10T09:51:27.327Z,99139.23
2019-06-10T09:54:03.082Z,99140.88
2019-06-10T09:56:33.010Z,99138.52
2019-06-10T09:59:03.929Z,99143.50
2019-06-10T10:01:34.693Z,99140.27
2019-06-10T10:04:06.438Z,99139.63
2019-06-10T10:06:38.060Z,99126.90
2019-06-10T10:09:23.171Z,99129.03
2019-06-10T10:11:55.302Z,99122.19
2019-06-10T10:14:29.748Z,99121.84
2019-06-10T10:17:06.859Z,99119.76
2019-06-10T10:19:37.615Z,99115.41
2019-06-10T10:22:10.908Z,99109.73
2019-06-10T10:24:42.461Z,99107.88
2019-06-10T10:27:13.864Z,99113.34
2019-06-10T10:29:46.880Z,99106.12
2019-06-10T10:32:23.184Z,99107.44
2019-06-10T10:34:56.417Z,99049.91
2019-06-10T10:37:29.187Z,99100.15
2019-06-10T10:40:02.994Z,99094.42
2019-06-10T10:42:45.071Z,99091.75
2019-06-10T10:45:07.967Z,99094.06
2019-06-10T10:47:39.481Z,99091.39
2019-06-10T10:50:13.847Z,99086.39
2019-06-10T10:52:48.629Z,99077.02
2019-06-10T10:55:22.290Z,99070.05
2019-06-10T10:57:57.689Z,99073.13
2019-06-10T11:00:37.337Z,99070.34
2019-06-10T11:03:08.146Z,99065.49
2019-06-10T11:05:39.782Z,99066.40
2019-06-10T11:08:14.274Z,99062.20
2019-06-10T11:10:55.503Z,99051.77
2019-06-10T11:13:26.480Z,99047.19
2019-06-10T11:15:58.612Z,99049.03
2019-06-10T11:18:31.209Z,99041.84
2019-06-10T11:21:05.054Z,99044.95
2019-06-10T11:23:37.562Z,99035.34
2019-06-10T11:26:09.442Z,98972.50
2019-06-10T11:28:43.427Z,99024.73
2019-06-10T11:31:16.404Z,99022.55
2019-06-10T11:33:53.874Z,99018.97
2019-06-10T11:36:26.443Z,99014.02
2019-06-10T11:39:07.660Z,99006.89
2019-06-10T11:41:43.135Z,99008.33
2019-06-10T11:44:15.013Z,98944.02
2019-06-10T11:46:54.026Z,98990.98
2019-06-10T11:49:33.954Z,98990.59
2019-06-10T11:52:12.707Z,98985.91
2019-06-10T11:55:01.672Z,98984.43
2019-06-10T11:57:22.828Z,98978.62
2019-06-10T11:59:55.949Z,98979.23
2019-06-10T12:02:41.803Z,98978.92
2019-06-10T12:05:13.588Z,98981.46
2019-06-10T12:07:45.772Z,98968.27
2019-06-10T12:10:23.199Z,98967.22
2019-06-10T12:13:00.559Z,98958.12
2019-06-10T12:16:09.693Z,98956.95
2019-06-10T12:18:09.321Z,98960.09
2019-06-10T12:20:43.285Z,98954.05
2019-06-10T12:23:18.134Z,98943.81
2019-06-10T12:25:52.967Z,98933.77
2019-06-10T12:28:23.410Z,98924.31
2019-06-10T12:30:59.253Z,98794.94
2019-06-10T12:33:27.139Z,98916.66
2019-06-10T12:36:01.524Z,98899.45
2019-06-10T12:38:43.535Z,98898.84
2019-06-10T12:41:14.314Z,98894.22
2019-06-10T12:43:48.878Z,98881.55
2019-06-10T12:46:23.253Z,98873.87
2019-06-10T12:48:58.168Z,98869.46
2019-06-10T12:51:32.715Z,98880.94
2019-06-10T12:54:08.035Z,98884.00
2019-06-10T12:56:42.361Z,98891.56
2019-06-10T12:59:19.629Z,98886.39
2019-06-10T13:01:58.057Z,98881.98
2019-06-10T13:04:29.287Z,98893.08
2019-06-10T13:07:05.198Z,98906.72
2019-06-10T13:09:35.364Z,98894.36
2019-06-10T13:12:05.903Z,98892.21
2019-06-10T13:14:48.349Z,98888.41
2019-06-10T13:17:23.509Z,98885.96
2019-06-10T13:20:01.216Z,98888.95
2019-06-10T13:22:32.799Z,98828.64
2019-06-10T13:25:04.718Z,98830.92
2019-06-10T13:27:36.785Z,98881.25
2019-06-10T13:30:22.912Z,98873.47
2019-06-10T13:32:46.451Z,98878.40
2019-06-10T13:35:22.857Z,98873.54
2019-06-10T13:37:54.325Z,98871.13
2019-06-10T13:40:25.668Z,98875.96
2019-06-10T13:42:59.714Z,98864.09
2019-06-10T13:45:33.205Z,98858.17
2019-06-10T13:48:09.983Z,98851.48
2019-06-10T13:50:38.804Z,98842.66
2019-06-10T13:53:13.541Z,98840.60
2019-06-10T13:55:44.234Z,98844.02
2019-06-10T13:58:15.475Z,98841.66
2019-06-10T14:00:47.054Z,98855.86
2019-06-10T14:03:17.816Z,98866.70
2019-06-10T14:05:48.369Z,98870.27
2019-06-10T14:08:24.285Z,98868.75
2019-06-10T14:10:54.011Z,98872.27
2019-06-10T14:13:27.870Z,98878.28
2019-06-10T14:15:58.006Z,98876.42
2019-06-10T14:18:28.210Z,98870.84
2019-06-10T14:20:58.589Z,98867.75
2019-06-10T14:23:29.878Z,98875.16
2019-06-10T14:26:03.237Z,98862.89
2019-06-10T14:28:40.689Z,98860.20
2019-06-10T14:31:29.862Z,98843.72
2019-06-10T14:33:42.892Z,98845.30
2019-06-10T14:36:16.639Z,98831.43
2019-06-10T14:38:48.186Z,98822.61
2019-06-10T14:41:19.086Z,98815.36
2019-06-10T14:43:52.951Z,98814.13
2019-06-10T14:46:23.184Z,98821.30
2019-06-10T14:48:54.961Z,98818.94
2019-06-10T14:51:28.117Z,98825.69
2019-06-10T14:54:03.283Z,98815.83
2019-06-10T14:56:49.674Z,98822.29
2019-06-10T14:59:09.562Z,98825.48
2019-06-10T15:01:42.643Z,98824.41
2019-06-10T15:04:15.130Z,98823.70
2019-06-10T15:06:46.561Z,98819.30
2019-06-10T15:09:23.650Z,98800.86
2019-06-10T15:11:58.591Z,98794.55
2019-06-10T15:14:33.343Z,98796.13
2019-06-10T15:17:10.717Z,98806.43
2019-06-10T15:19:45.589Z,98808.20
2019-06-10T15:22:23.552Z,98812.16
2019-06-10T15:28:34.189Z,98815.17
2019-06-10T15:31:08.252Z,98822.17
2019-06-10T15:33:38.475Z,98827.27
2019-06-10T15:36:11.204Z,98830.78
2019-06-10T15:38:43.876Z,98838.88
2019-06-10T15:41:16.550Z,98836.77
2019-06-10T15:43:44.909Z,98837.17
2019-06-10T15:46:19.575Z,98831.65
2019-06-10T15:48:53.916Z,98835.70
2019-06-10T15:51:25.936Z,98844.86
2019-06-10T15:53:55.129Z,98864.38
2019-06-10T15:56:39.860Z,98872.08
2019-06-10T15:59:04.683Z,98879.69
2019-06-10T16:01:35.145Z,98885.31
2019-06-10T16:04:07.274Z,98895.86
2019-06-10T16:06:39.800Z,98877.80
2019-06-10T16:09:13.838Z,98905.67
2019-06-10T16:11:45.019Z,98903.23
2019-06-10T16:14:16.640Z,98905.36
2019-06-10T16:16:46.953Z,98909.16
2019-06-10T16:19:21.271Z,98899.05
2019-06-10T16:21:52.496Z,98898.55
2019-06-10T16:24:26.951Z,98893.06
2019-06-10T16:26:55.400Z,98889.72
2019-06-10T16:29:27.079Z,98860.23
2019-06-10T16:31:57.477Z,98846.86
2019-06-10T16:34:29.101Z,98848.53
2019-06-10T16:36:59.342Z,98850.84
2019-06-10T16:39:29.708Z,98760.34
2019-06-10T16:41:59.822Z,98831.38
2019-06-10T16:44:32.785Z,98843.92
2019-06-10T16:47:03.273Z,98877.80
2019-06-10T16:49:36.538Z,98908.25
2019-06-10T16:52:09.180Z,98923.06
2019-06-10T16:54:41.941Z,98930.91
2019-06-10T16:57:12.356Z,98955.22
2019-06-10T16:59:43.346Z,98952.83
2019-06-10T17:02:14.331Z,98959.95
2019-06-10T17:04:44.586Z,98971.04
2019-06-10T17:07:14.863Z,98983.18
2019-06-10T17:09:45.279Z,98987.92
2019-06-10T17:12:15.438Z,98990.37
2019-06-10T17:14:45.425Z,98999.50
2019-06-10T17:17:16.854Z,99003.75
2019-06-10T17:19:47.585Z,98995.36
2019-06-10T17:22:18.739Z,98982.13
2019-06-10T17:24:50.331Z,98974.13
2019-06-10T17:27:23.269Z,98961.38
2019-06-10T17:29:52.820Z,98956.91
2019-06-10T17:32:25.604Z,98951.14
2019-06-10T17:34:56.354Z,98941.91
2019-06-10T17:37:28.564Z,98950.07
2019-06-10T17:39:58.698Z,98969.02
2019-06-10T17:42:34.559Z,98973.72
2019-06-10T17:45:02.504Z,98977.43
2019-06-10T17:47:34.630Z,98982.05
2019-06-10T17:50:05.532Z,98992.16
2019-06-10T17:52:38.772Z,98982.38
2019-06-10T17:55:08.696Z,98978.31
2019-06-10T17:57:38.703Z,98897.00
2019-06-10T18:00:12.299Z,98992.45
2019-06-10T18:02:42.724Z,99003.14
2019-06-10T18:05:13.284Z,98989.18
2019-06-10T18:07:44.325Z,98988.92
2019-06-10T18:10:15.822Z,98978.78
2019-06-10T18:12:46.279Z,98952.12
2019-06-10T18:15:16.941Z,98941.73
2019-06-10T18:17:47.015Z,98925.47
2019-06-10T18:20:18.640Z,98906.80
2019-06-10T18:22:48.842Z,98910.52
2019-06-10T18:25:19.721Z,98930.52
2019-06-10T18:27:52.216Z,98938.84
2019-06-10T18:30:22.343Z,98929.83
2019-06-10T18:32:53.129Z,98919.98
2019-06-10T18:35:23.525Z,98897.92
2019-06-10T18:37:53.934Z,98875.72
2019-06-10T18:40:27.469Z,98867.39
2019-06-10T18:42:58.011Z,98852.76
2019-06-10T18:45:28.146Z,98845.26
2019-06-10T18:47:59.096Z,98848.15
2019-06-10T18:50:32.894Z,98847.56
2019-06-10T18:53:04.156Z,98842.77
2019-06-10T18:55:37.237Z,98845.26
2019-06-10T18:58:06.394Z,98765.45
2019-06-10T19:00:53.533Z,98845.80
2019-06-10T19:03:13.895Z,98854.34
2019-06-10T19:05:42.751Z,98768.26
2019-06-10T19:08:13.711Z,98845.95
2019-06-10T19:10:45.417Z,98842.13
2019-06-10T19:13:15.843Z,98841.26
2019-06-10T19:15:46.095Z,98851.81
2019-06-10T19:18:16.634Z,98853.33
2019-06-10T19:20:49.353Z,98854.38
2019-06-10T19:23:19.436Z,98861.05
2019-06-10T19:25:52.433Z,98866.13
2019-06-10T19:28:23.156Z,98885.34
2019-06-10T19:30:53.887Z,98893.35
2019-06-10T19:33:23.973Z,98918.95
2019-06-10T19:35:55.813Z,98920.28
2019-06-10T19:38:28.286Z,98826.55
2019-06-10T19:40:59.956Z,98881.16
2019-06-10T19:43:36.162Z,98878.06
2019-06-10T19:46:08.288Z,98869.27
2019-06-10T19:48:42.302Z,98862.45
2019-06-10T19:51:16.792Z,98852.36
2019-06-10T19:53:52.557Z,98839.92
2019-06-10T19:56:33.101Z,98835.92
2019-06-10T19:59:17.964Z,98742.10
2019-06-10T20:01:53.901Z,98793.88
2019-06-10T20:04:33.411Z,98799.56
2019-06-10T20:07:12.821Z,98732.55
2019-06-10T20:09:52.968Z,98802.91
2019-06-10T20:12:27.731Z,98804.47
2019-06-10T20:15:02.110Z,98798.34
2019-06-10T20:17:39.598Z,98811.86
2019-06-10T20:20:14.598Z,98814.23
2019-06-10T20:22:49.020Z,98809.98
2019-06-10T20:25:22.348Z,98814.66
2019-06-10T20:28:03.023Z,98813.93
2019-06-10T20:30:37.210Z,98809.72
2019-06-10T20:33:09.650Z,98824.55
2019-06-10T20:35:42.131Z,98832.86
2019-06-10T20:38:17.152Z,98828.67
2019-06-10T20:40:48.769Z,98826.10
2019-06-10T20:43:19.139Z,98818.45
2019-06-10T20:45:50.457Z,98814.78
2019-06-10T20:48:24.276Z,98809.83
2019-06-10T20:50:55.394Z,98818.70
2019-06-10T20:53:25.615Z,98810.81
2019-06-10T20:55:57.662Z,98807.45
2019-06-10T20:58:28.181Z,98800.81
2019-06-10T21:00:58.701Z,98796.41
2019-06-10T21:03:32.364Z,98799.47
2019-06-10T21:06:05.089Z,98801.37
2019-06-10T21:08:35.926Z,98808.59
2019-06-10T21:11:06.367Z,98818.22
2019-06-10T21:13:37.422Z,98826.80
2019-06-10T21:16:09.529Z,98820.43
2019-06-10T21:18:40.360Z,98824.62
2019-06-10T21:21:10.788Z,98840.91
2019-06-10T21:23:44.631Z,98773.51
2019-06-10T21:26:14.737Z,98857.16
2019-06-10T21:28:48.507Z,98856.91
2019-06-10T21:31:17.541Z,98845.74
2019-06-10T21:33:49.545Z,98827.96
2019-06-10T21:36:19.966Z,98825.58
2019-06-10T21:38:51.867Z,98807.77
2019-06-10T21:41:22.759Z,98809.23
2019-06-10T21:43:59.160Z,98802.35
2019-06-10T21:46:24.922Z,98802.09
2019-06-10T21:48:55.838Z,98796.86
2019-06-10T21:51:26.694Z,98792.41
2019-06-10T21:53:57.791Z,98709.09
2019-06-10T21:56:32.816Z,98794.35
2019-06-10T21:59:02.958Z,98760.47
2019-06-10T22:01:33.711Z,98817.58
2019-06-10T22:04:06.411Z,98830.11
2019-06-10T22:06:36.338Z,98826.17
2019-06-10T22:09:12.357Z,98830.70
2019-06-10T22:11:48.538Z,98845.61
2019-06-10T22:14:26.418Z,98859.44
2019-06-10T22:16:57.070Z,98869.29
2019-06-10T22:19:27.103Z,98877.31
2019-06-10T22:21:56.977Z,98877.85
2019-06-10T22:24:26.996Z,98883.45
2019-06-10T22:26:57.559Z,98876.87
2019-06-10T22:29:28.853Z,98807.77
2019-06-10T22:31:58.774Z,98893.15
2019-06-10T22:34:28.919Z,98901.94
2019-06-10T22:36:59.223Z,98909.39
2019-06-10T22:39:29.213Z,98909.18
2019-06-10T22:41:59.702Z,98910.01
2019-06-10T22:44:29.852Z,98916.14
2019-06-10T22:47:02.779Z,98905.23
2019-06-10T22:49:32.812Z,98898.06
2019-06-10T22:52:05.906Z,98897.00
2019-06-10T22:54:36.110Z,98891.16
2019-06-10T22:57:06.929Z,98892.33
2019-06-10T22:59:37.237Z,98896.58
2019-06-10T23:02:07.374Z,98894.73
2019-06-10T23:04:39.190Z,98891.48
2019-06-10T23:07:09.032Z,98886.95
2019-06-10T23:09:39.578Z,98884.50
2019-06-10T23:12:11.952Z,98809.09
2019-06-10T23:14:45.065Z,98886.23
2019-06-10T23:17:15.456Z,98797.52
2019-06-10T23:19:47.109Z,98866.09
2019-06-10T23:22:17.465Z,98880.23
2019-06-10T23:24:47.743Z,98882.05
2019-06-10T23:27:19.287Z,98883.36
2019-06-10T23:29:53.937Z,98895.81
2019-06-10T23:32:23.017Z,98894.73
2019-06-10T23:34:54.698Z,98896.00
2019-06-10T23:37:26.981Z,98903.10
2019-06-10T23:39:57.035Z,98899.59
2019-06-10T23:42:28.398Z,98891.56
2019-06-10T23:44:59.195Z,98883.80
2019-06-10T23:47:29.814Z,98873.06
2019-06-10T23:50:03.717Z,98855.97
2019-06-10T23:52:32.968Z,98854.12
2019-06-10T23:55:04.518Z,98848.06
2019-06-10T23:57:34.725Z,98844.09
